Time;durP1;ratioP1;P1;durP2;ratioP2;P2;SDS_P1;SDS_P2;PMS_P1;PMS_P2;Temp;Humidity;BMP_temperature;BMP_pressure;BME280_temperature;BME280_humidity;BME280_pressure;Samples;Min_cycle;Max_cycle;Signal;HPM_P1;HPM_P2
2023/07/13 00:00:41;;;;;;;12.05;9.60;;;;;;;;;;2544113;23;20102;-96
2023/07/13 00:01:59;;;;;;;12.23;9.88;;;;;;;;;;2540154;23;20017;-96
2023/07/13 00:03:00;;;;;;;13.88;9.98;;;;;;;;;;2547479;23;20016;-96
2023/07/13 00:04:01;;;;;;;13.00;9.55;;;;;;;;;;2542373;23;20013;-96
2023/07/13 00:05:06;;;;;;;13.65;9.98;;;;;;;;;;2537363;23;20181;-96
2023/07/13 00:06:08;;;;;;;11.35;9.93;;;;;;;;;;2534260;23;20010;-96
2023/07/13 00:07:08;;;;;;;11.73;10.05;;;;;;;;;;2545311;23;20060;-96
2023/07/13 00:08:11;;;;;;;13.27;9.82;;;;;;;;;;2533435;23;20364;-96
2023/07/13 00:09:16;;;;;;;12.10;9.40;;;;;;;;;;2521289;23;20002;-96
2023/07/13 00:10:17;;;;;;;11.80;9.80;;;;;;;;;;2521562;23;19994;-96
2023/07/13 00:11:18;;;;;;;12.18;10.15;;;;;;;;;;2521198;23;20006;-96
2023/07/13 00:12:30;;;;;;;12.18;9.57;;;;;;;;;;2533240;23;20080;-96
2023/07/13 00:13:33;;;;;;;11.63;9.82;;;;;;;;;;2533237;23;20002;-96
2023/07/13 00:14:35;;;;;;;11.45;9.23;;;;;;;;;;2521198;23;20002;-96
2023/07/13 00:15:36;;;;;;;15.48;9.55;;;;;;;;;;2533278;23;20002;-96
2023/07/13 00:16:40;;;;;;;11.82;9.60;;;;;;;;;;2533568;23;20021;-96
2023/07/13 00:17:40;;;;;;;10.93;9.68;;;;;;;;;;2533291;23;20002;-96
2023/07/13 00:18:41;;;;;;;12.27;10.40;;;;;;;;;;2546700;23;20004;-96
2023/07/13 00:19:41;;;;;;;12.50;11.18;;;;;;;;;;2545565;23;19993;-96
2023/07/13 00:20:43;;;;;;;14.52;10.80;;;;;;;;;;2520971;23;20018;-96
2023/07/13 00:21:43;;;;;;;13.70;10.60;;;;;;;;;;2534151;23;20077;-96
2023/07/13 00:22:44;;;;;;;12.50;10.63;;;;;;;;;;2533539;23;20006;-96
2023/07/13 00:23:44;;;;;;;14.73;11.63;;;;;;;;;;2540333;23;19998;-95
2023/07/13 00:24:45;;;;;;;16.02;11.05;;;;;;;;;;2528483;23;20130;-96
2023/07/13 00:25:46;;;;;;;15.05;10.82;;;;;;;;;;2522368;23;20079;-96
2023/07/13 00:26:46;;;;;;;12.55;11.25;;;;;;;;;;2534657;23;20046;-96
2023/07/13 00:27:48;;;;;;;14.02;11.65;;;;;;;;;;2534456;23;20542;-96
2023/07/13 00:28:49;;;;;;;15.52;10.80;;;;;;;;;;2522866;23;20377;-96
2023/07/13 00:29:50;;;;;;;13.63;11.38;;;;;;;;;;2535444;23;20424;-96
2023/07/13 00:30:51;;;;;;;12.75;10.35;;;;;;;;;;2535627;23;20021;-96
2023/07/13 00:31:54;;;;;;;13.52;11.27;;;;;;;;;;2526312;23;20002;-96
2023/07/13 00:32:55;;;;;;;15.23;10.50;;;;;;;;;;2551329;23;20020;-95
2023/07/13 00:33:55;;;;;;;14.95;11.40;;;;;;;;;;2560971;23;20000;-96
2023/07/13 00:34:57;;;;;;;14.35;11.00;;;;;;;;;;2533995;23;20002;-96
2023/07/13 00:35:57;;;;;;;14.13;11.68;;;;;;;;;;2533676;23;20073;-96
2023/07/13 00:36:58;;;;;;;13.70;11.05;;;;;;;;;;2533795;23;19994;-96
2023/07/13 00:38:01;;;;;;;14.20;11.30;;;;;;;;;;2533937;23;19998;-96
2023/07/13 00:39:03;;;;;;;16.70;11.98;;;;;;;;;;2538440;23;20006;-96
2023/07/13 00:40:07;;;;;;;14.80;12.02;;;;;;;;;;2528215;23;19994;-96
2023/07/13 00:41:12;;;;;;;16.05;11.77;;;;;;;;;;2540416;23;20037;-96
2023/07/13 00:42:15;;;;;;;13.80;11.40;;;;;;;;;;2550212;23;20009;-96
2023/07/13 00:43:22;;;;;;;14.30;11.80;;;;;;;;;;2547955;23;20112;-96
2023/07/13 00:44:23;;;;;;;14.30;11.43;;;;;;;;;;2534739;23;19994;-96
2023/07/13 00:45:24;;;;;;;16.02;11.90;;;;;;;;;;2508966;23;20033;-96
2023/07/13 00:46:30;;;;;;;12.93;11.18;;;;;;;;;;2521187;23;20463;-96
2023/07/13 00:47:31;;;;;;;14.93;10.82;;;;;;;;;;2545826;23;20009;-96
2023/07/13 00:48:36;;;;;;;13.80;11.00;;;;;;;;;;2533638;23;20109;-96
2023/07/13 00:49:37;;;;;;;15.43;11.63;;;;;;;;;;2521079;23;20025;-96
2023/07/13 00:50:38;;;;;;;19.80;11.63;;;;;;;;;;2520942;23;20012;-96
2023/07/13 00:51:42;;;;;;;13.48;11.32;;;;;;;;;;2520579;23;20511;-96
2023/07/13 00:52:46;;;;;;;15.88;11.02;;;;;;;;;;2521429;23;20518;-96
2023/07/13 00:53:46;;;;;;;14.85;12.00;;;;;;;;;;2520736;23;19998;-96
2023/07/13 00:54:48;;;;;;;12.65;10.80;;;;;;;;;;2521676;23;20309;-96
2023/07/13 00:55:50;;;;;;;13.45;11.88;;;;;;;;;;2520544;23;20455;-96
2023/07/13 00:56:59;;;;;;;15.93;11.65;;;;;;;;;;2533172;23;19998;-96
2023/07/13 00:58:08;;;;;;;12.27;10.98;;;;;;;;;;2551357;23;20005;-96
2023/07/13 00:59:22;;;;;;;12.40;11.13;;;;;;;;;;2548766;23;20101;-96
2023/07/13 01:00:24;;;;;;;14.65;11.20;;;;;;;;;;2533038;23;20154;-96
2023/07/13 01:01:24;;;;;;;12.20;10.52;;;;;;;;;;2532851;23;20029;-96
2023/07/13 01:02:28;;;;;;;13.15;11.38;;;;;;;;;;2533274;23;20004;-96
2023/07/13 01:03:29;;;;;;;13.88;11.13;;;;;;;;;;2521211;23;20013;-96
2023/07/13 01:04:30;;;;;;;14.20;11.32;;;;;;;;;;2533185;23;20104;-95
2023/07/13 01:05:32;;;;;;;16.13;11.48;;;;;;;;;;2532653;23;19998;-96
2023/07/13 01:06:33;;;;;;;12.95;10.77;;;;;;;;;;2520751;23;20006;-96
2023/07/13 01:07:33;;;;;;;13.05;10.98;;;;;;;;;;2520769;23;20002;-96
2023/07/13 01:08:34;;;;;;;15.15;11.52;;;;;;;;;;2532281;23;20003;-96
2023/07/13 01:09:35;;;;;;;14.55;11.90;;;;;;;;;;2532634;23;19998;-95
2023/07/13 01:10:38;;;;;;;14.95;11.68;;;;;;;;;;2545278;23;20048;-96
2023/07/13 01:11:49;;;;;;;14.94;10.77;;;;;;;;;;2485941;23;10158263;-96
2023/07/13 01:12:49;;;;;;;15.25;11.70;;;;;;;;;;2540639;23;20196;-95
2023/07/13 01:13:50;;;;;;;14.07;11.63;;;;;;;;;;2524842;23;20005;-96
2023/07/13 01:15:00;;;;;;;12.93;11.32;;;;;;;;;;2521903;23;20022;-96
2023/07/13 01:16:11;;;;;;;12.65;11.27;;;;;;;;;;2526701;23;20033;-96
2023/07/13 01:17:12;;;;;;;16.10;11.68;;;;;;;;;;2100687;23;10001548;-96
2023/07/13 01:18:27;;;;;;;14.32;11.90;;;;;;;;;;2521011;23;20472;-96
2023/07/13 01:19:39;;;;;;;16.02;11.77;;;;;;;;;;2539703;23;20002;-96
2023/07/13 01:21:14;;;;;;;14.70;11.60;;;;;;;;;;2537835;23;20013;-96
2023/07/13 01:22:17;;;;;;;14.05;12.23;;;;;;;;;;2057006;23;10187539;-96
2023/07/13 01:23:18;;;;;;;13.63;11.50;;;;;;;;;;2508393;23;20009;-96
2023/07/13 01:24:19;;;;;;;14.90;12.05;;;;;;;;;;2521142;23;20073;-96
2023/07/13 01:25:20;;;;;;;15.02;11.77;;;;;;;;;;2520984;23;19998;-96
2023/07/13 01:26:42;;;;;;;14.40;12.20;;;;;;;;;;2511155;23;20046;-96
2023/07/13 01:28:08;;;;;;;15.60;11.95;;;;;;;;;;2528072;23;20018;-96
2023/07/13 01:29:16;;;;;;;14.40;11.45;;;;;;;;;;2525380;23;19998;-96
2023/07/13 01:30:18;;;;;;;13.55;11.23;;;;;;;;;;2530625;23;20055;-96
2023/07/13 01:35:01;;;;;;;15.90;11.73;;;;;;;;;;2543718;23;20002;-96
2023/07/13 01:36:08;;;;;;;15.32;12.32;;;;;;;;;;2540144;23;20001;-96
2023/07/13 01:39:32;;;;;;;15.32;11.75;;;;;;;;;;2546300;23;20013;-96
2023/07/13 01:40:33;;;;;;;16.20;12.48;;;;;;;;;;2522852;23;20009;-95
2023/07/13 01:41:35;;;;;;;16.90;11.95;;;;;;;;;;2526361;23;20044;-96
2023/07/13 01:42:39;;;;;;;15.23;12.02;;;;;;;;;;2534447;23;20005;-96
2023/07/13 01:43:39;;;;;;;16.85;12.73;;;;;;;;;;2535327;23;20005;-96
2023/07/13 01:44:40;;;;;;;15.52;12.50;;;;;;;;;;2536022;23;20001;-96
2023/07/13 01:45:41;;;;;;;15.32;12.88;;;;;;;;;;2553126;23;20017;-96
2023/07/13 01:46:41;;;;;;;17.08;12.43;;;;;;;;;;2542065;23;20033;-96
2023/07/13 01:47:42;;;;;;;16.42;12.57;;;;;;;;;;2531787;23;19986;-96
2023/07/13 01:48:42;;;;;;;16.52;12.77;;;;;;;;;;2543914;23;20014;-96
2023/07/13 01:49:47;;;;;;;13.98;12.35;;;;;;;;;;2552794;23;20002;-96
2023/07/13 01:50:50;;;;;;;15.25;12.65;;;;;;;;;;2535703;23;20006;-96
2023/07/13 01:51:53;;;;;;;16.23;13.50;;;;;;;;;;2523289;23;19998;-96
2023/07/13 01:52:58;;;;;;;15.85;13.48;;;;;;;;;;2534643;23;19997;-96
2023/07/13 01:53:59;;;;;;;15.05;12.93;;;;;;;;;;2535629;23;20076;-96
2023/07/13 01:54:59;;;;;;;16.48;13.65;;;;;;;;;;2533826;23;20089;-96
2023/07/13 01:56:00;;;;;;;15.20;12.88;;;;;;;;;;2521530;23;20114;-96
2023/07/13 01:57:01;;;;;;;15.98;13.30;;;;;;;;;;2534826;23;19994;-96
2023/07/13 01:58:04;;;;;;;17.40;13.88;;;;;;;;;;2533934;23;20073;-96
2023/07/13 01:59:11;;;;;;;21.48;13.98;;;;;;;;;;2536151;23;20518;-96
2023/07/13 02:00:21;;;;;;;17.63;13.77;;;;;;;;;;2540544;23;20029;-96
2023/07/13 02:01:27;;;;;;;18.38;14.05;;;;;;;;;;2545671;23;20002;-95
2023/07/13 02:02:28;;;;;;;22.00;13.63;;;;;;;;;;2547129;23;20013;-96
2023/07/13 02:03:29;;;;;;;16.98;14.60;;;;;;;;;;2535473;23;20022;-96
2023/07/13 02:04:30;;;;;;;17.85;13.88;;;;;;;;;;2535029;23;20057;-96
2023/07/13 02:05:30;;;;;;;17.30;14.15;;;;;;;;;;2534052;23;20002;-96
2023/07/13 02:06:31;;;;;;;19.00;14.40;;;;;;;;;;2534408;23;20030;-96
2023/07/13 02:07:34;;;;;;;18.92;14.90;;;;;;;;;;2533188;23;20101;-96
2023/07/13 02:08:35;;;;;;;17.42;13.57;;;;;;;;;;2522960;23;20054;-96
2023/07/13 02:09:35;;;;;;;16.65;13.48;;;;;;;;;;2533559;23;20389;-96
2023/07/13 02:10:37;;;;;;;18.98;14.95;;;;;;;;;;2537074;23;20033;-96
2023/07/13 02:11:37;;;;;;;15.80;13.45;;;;;;;;;;2535826;23;20432;-96
2023/07/13 02:12:49;;;;;;;18.83;13.80;;;;;;;;;;2195360;23;10218651;-96
2023/07/13 02:13:49;;;;;;;16.67;14.27;;;;;;;;;;2525254;23;20235;-96
2023/07/13 02:14:52;;;;;;;16.42;14.35;;;;;;;;;;2063933;23;10231320;-96
2023/07/13 02:17:14;;;;;;;17.27;13.68;;;;;;;;;;2542808;23;20029;-94
2023/07/13 02:18:16;;;;;;;20.15;14.52;;;;;;;;;;2554249;23;20014;-93
2023/07/13 02:19:17;;;;;;;17.33;14.20;;;;;;;;;;2542891;23;20005;-94
2023/07/13 02:20:18;;;;;;;17.25;14.07;;;;;;;;;;2554092;23;19997;-93
2023/07/13 02:21:18;;;;;;;23.58;14.20;;;;;;;;;;2553175;23;20016;-93
2023/07/13 02:22:18;;;;;;;17.30;13.82;;;;;;;;;;2551256;23;20101;-96
2023/07/13 02:23:25;;;;;;;16.92;13.90;;;;;;;;;;2556821;23;20013;-96
2023/07/13 02:24:27;;;;;;;18.15;14.20;;;;;;;;;;2545866;23;20013;-96
2023/07/13 02:25:27;;;;;;;17.25;13.60;;;;;;;;;;2544606;23;19990;-96
2023/07/13 02:26:49;;;;;;;16.33;13.43;;;;;;;;;;2556531;23;20041;-95
2023/07/13 02:27:50;;;;;;;15.60;13.07;;;;;;;;;;2558361;23;20005;-94
2023/07/13 02:28:51;;;;;;;18.25;13.05;;;;;;;;;;2553372;23;20089;-96
2023/07/13 02:29:53;;;;;;;21.80;13.82;;;;;;;;;;2545355;23;19997;-96
2023/07/13 02:30:54;;;;;;;17.52;13.90;;;;;;;;;;2545616;23;20028;-96
2023/07/13 02:31:54;;;;;;;17.38;14.00;;;;;;;;;;2545978;23;20401;-95
2023/07/13 02:32:55;;;;;;;18.55;14.27;;;;;;;;;;2547920;23;20112;-96
2023/07/13 02:33:56;;;;;;;15.25;12.55;;;;;;;;;;2545861;23;20055;-96
2023/07/13 02:34:59;;;;;;;17.10;12.95;;;;;;;;;;2550695;23;20064;-96
2023/07/13 02:39:41;;;;;;;19.05;12.90;;;;;;;;;;2545133;23;20058;-96
2023/07/13 02:40:50;;;;;;;15.40;12.85;;;;;;;;;;2539270;23;20030;-96
2023/07/13 02:41:53;;;;;;;16.95;12.80;;;;;;;;;;2525979;23;20488;-96
2023/07/13 02:43:00;;;;;;;16.85;13.68;;;;;;;;;;2515601;23;20013;-96
2023/07/13 02:44:08;;;;;;;17.60;13.57;;;;;;;;;;2499061;23;20014;-96
2023/07/13 02:45:13;;;;;;;16.15;13.27;;;;;;;;;;2508127;23;19999;-96
2023/07/13 02:46:24;;;;;;;16.42;12.98;;;;;;;;;;2516244;23;20091;-96
2023/07/13 02:47:26;;;;;;;14.75;12.95;;;;;;;;;;2507769;23;20480;-96
2023/07/13 02:48:27;;;;;;;18.83;13.82;;;;;;;;;;2520284;23;20011;-96
2023/07/13 02:49:27;;;;;;;17.27;14.30;;;;;;;;;;2530782;23;20037;-96
2023/07/13 02:50:30;;;;;;;18.45;13.45;;;;;;;;;;2514842;23;20347;-96
2023/07/13 02:51:41;;;;;;;16.90;13.77;;;;;;;;;;2503903;23;19999;-96
2023/07/13 02:52:46;;;;;;;18.00;13.70;;;;;;;;;;2528952;23;20017;-96
2023/07/13 02:53:50;;;;;;;15.63;13.10;;;;;;;;;;2525348;23;19998;-96
2023/07/13 02:54:50;;;;;;;17.58;13.88;;;;;;;;;;2527437;23;19998;-96
2023/07/13 02:56:04;;;;;;;;;;;;;;;;;;;;;
2023/07/13 02:57:14;;;;;;;19.05;14.18;;;;;;;;;;2540392;23;20018;-96
2023/07/13 02:58:27;;;;;;;18.42;13.85;;;;;;;;;;2538346;23;20008;-96
2023/07/13 02:59:39;;;;;;;18.63;13.77;;;;;;;;;;2524664;23;20006;-96
2023/07/13 03:00:43;;;;;;;16.80;14.35;;;;;;;;;;2517132;23;20117;-96
2023/07/13 03:01:46;;;;;;;17.67;13.50;;;;;;;;;;2513962;23;19999;-96
2023/07/13 03:02:47;;;;;;;21.38;13.57;;;;;;;;;;2525834;23;20449;-96
2023/07/13 03:03:50;;;;;;;18.17;14.43;;;;;;;;;;2522854;23;20081;-96
2023/07/13 03:04:53;;;;;;;17.77;14.13;;;;;;;;;;2514248;23;20350;-96
2023/07/13 03:06:05;;;;;;;17.48;14.65;;;;;;;;;;2525282;23;19998;-96
2023/07/13 03:07:05;;;;;;;16.27;13.88;;;;;;;;;;2524326;23;20024;-96
2023/07/13 03:08:09;;;;;;;17.63;14.48;;;;;;;;;;2522069;23;19994;-96
2023/07/13 03:09:13;;;;;;;19.67;14.88;;;;;;;;;;2530718;23;20480;-96
2023/07/13 03:10:14;;;;;;;20.98;14.93;;;;;;;;;;2551279;23;20032;-96
2023/07/13 03:11:19;;;;;;;19.60;14.50;;;;;;;;;;2124616;23;10175514;-96
2023/07/13 03:12:20;;;;;;;19.85;15.43;;;;;;;;;;2559721;23;19993;-95
2023/07/13 03:13:21;;;;;;;18.02;14.38;;;;;;;;;;2548857;23;20035;-96
2023/07/13 03:14:27;;;;;;;18.33;14.35;;;;;;;;;;2536116;23;20113;-96
2023/07/13 03:15:28;;;;;;;19.15;14.25;;;;;;;;;;2549175;23;20076;-96
2023/07/13 03:16:30;;;;;;;21.38;14.55;;;;;;;;;;2559700;23;20008;-96
2023/07/13 03:17:31;;;;;;;18.25;14.38;;;;;;;;;;2566407;23;20005;-96
2023/07/13 03:18:41;;;;;;;19.80;14.63;;;;;;;;;;2547181;23;20000;-96
2023/07/13 03:19:44;;;;;;;18.33;13.93;;;;;;;;;;2535619;23;20399;-96
2023/07/13 03:20:46;;;;;;;17.58;14.80;;;;;;;;;;2534969;23;20005;-96
2023/07/13 03:21:49;;;;;;;20.83;15.27;;;;;;;;;;2547884;23;19989;-96
2023/07/13 03:22:50;;;;;;;18.15;15.07;;;;;;;;;;2559424;23;19997;-96
2023/07/13 03:23:50;;;;;;;16.85;14.60;;;;;;;;;;2546335;23;19994;-96
2023/07/13 03:24:51;;;;;;;19.95;15.02;;;;;;;;;;2546901;23;20009;-96
2023/07/13 03:26:12;;;;;;;19.35;14.57;;;;;;;;;;2560695;23;20008;-96
2023/07/13 03:27:13;;;;;;;19.27;14.45;;;;;;;;;;2564923;23;19997;-96
2023/07/13 03:28:15;;;;;;;17.20;14.70;;;;;;;;;;2568085;23;19993;-96
2023/07/13 03:29:18;;;;;;;18.90;13.80;;;;;;;;;;2555986;23;20000;-95
2023/07/13 03:30:19;;;;;;;19.45;14.50;;;;;;;;;;2552587;23;20008;-96
2023/07/13 03:31:23;;;;;;;18.58;14.15;;;;;;;;;;2546951;23;19993;-95
2023/07/13 03:32:23;;;;;;;18.63;14.38;;;;;;;;;;2546949;23;20012;-95
2023/07/13 03:33:24;;;;;;;15.85;13.40;;;;;;;;;;2546285;23;19997;-95
2023/07/13 03:34:25;;;;;;;17.15;13.73;;;;;;;;;;2545491;23;19997;-96
2023/07/13 03:35:25;;;;;;;18.33;13.07;;;;;;;;;;2550948;23;20029;-96
2023/07/13 03:36:28;;;;;;;18.56;13.07;;;;;;;;;;2115461;23;10304496;-95
2023/07/13 03:37:29;;;;;;;18.48;14.25;;;;;;;;;;2552012;23;19986;-96
2023/07/13 03:38:29;;;;;;;18.05;13.77;;;;;;;;;;2536017;23;20404;-96
2023/07/13 03:39:32;;;;;;;17.40;13.60;;;;;;;;;;2548306;23;20060;-96
2023/07/13 03:40:47;;;;;;;;;;;;;;;;;;;;;
2023/07/13 03:41:57;;;;;;;18.80;14.32;;;;;;;;;;2551476;23;20068;-96
2023/07/13 03:43:06;;;;;;;16.50;13.82;;;;;;;;;;2562855;23;20003;-96
2023/07/13 03:44:07;;;;;;;14.82;12.68;;;;;;;;;;2131829;23;10128328;-96
2023/07/13 03:45:08;;;;;;;17.23;14.18;;;;;;;;;;2546372;23;20087;-96
2023/07/13 03:46:09;;;;;;;18.02;13.90;;;;;;;;;;2546487;23;20001;-96
2023/07/13 03:47:32;;;;;;;18.73;14.35;;;;;;;;;;2548615;23;20048;-96
2023/07/13 03:48:34;;;;;;;18.67;13.57;;;;;;;;;;2525099;23;20093;-96
2023/07/13 03:49:42;;;;;;;18.20;15.13;;;;;;;;;;2538933;23;20001;-96
2023/07/13 03:50:49;;;;;;;17.02;13.90;;;;;;;;;;2112967;23;10318875;-96
2023/07/13 03:51:53;;;;;;;16.67;13.73;;;;;;;;;;2565408;23;20045;-96
2023/07/13 03:52:56;;;;;;;17.33;14.10;;;;;;;;;;2542276;23;20001;-96
2023/07/13 03:54:04;;;;;;;18.90;14.65;;;;;;;;;;2540859;23;20316;-96
2023/07/13 03:59:21;;;;;;;19.00;14.27;;;;;;;;;;2563913;23;20048;-96
2023/07/13 04:00:21;;;;;;;21.60;13.55;;;;;;;;;;2545924;23;19997;-96
2023/07/13 04:01:25;;;;;;;18.15;13.40;;;;;;;;;;2547165;23;20056;-96
2023/07/13 04:02:28;;;;;;;17.30;14.30;;;;;;;;;;2556275;23;20071;-96
2023/07/13 04:03:32;;;;;;;16.67;14.35;;;;;;;;;;2545945;23;20076;-96
2023/07/13 04:04:38;;;;;;;20.52;15.20;;;;;;;;;;2534202;23;20005;-96
2023/07/13 04:05:40;;;;;;;19.00;14.18;;;;;;;;;;2534767;23;20045;-96
2023/07/13 04:06:47;;;;;;;18.00;13.85;;;;;;;;;;2533568;23;20012;-96
2023/07/13 04:07:47;;;;;;;18.45;14.60;;;;;;;;;;2546593;23;20005;-96
2023/07/13 04:08:52;;;;;;;19.27;15.05;;;;;;;;;;2113627;23;10262420;-96
2023/07/13 04:09:53;;;;;;;17.70;14.55;;;;;;;;;;2546497;23;20009;-95
2023/07/13 04:10:53;;;;;;;16.48;13.27;;;;;;;;;;2550140;23;19997;-96
2023/07/13 04:11:54;;;;;;;18.85;14.45;;;;;;;;;;2546483;23;20072;-95
2023/07/13 04:12:54;;;;;;;15.77;13.73;;;;;;;;;;2558471;23;20001;-96
2023/07/13 04:13:55;;;;;;;18.50;14.32;;;;;;;;;;2570497;23;20016;-96
2023/07/13 04:15:00;;;;;;;17.23;14.07;;;;;;;;;;2545029;23;20033;-96
2023/07/13 04:16:04;;;;;;;17.17;13.65;;;;;;;;;;2547931;23;20332;-96
2023/07/13 04:17:08;;;;;;;18.58;14.05;;;;;;;;;;2546108;23;20006;-96
2023/07/13 04:18:08;;;;;;;20.02;13.88;;;;;;;;;;2546743;23;20000;-96
2023/07/13 04:19:10;;;;;;;29.05;14.80;;;;;;;;;;2545338;23;19993;-96
2023/07/13 04:20:10;;;;;;;15.48;13.50;;;;;;;;;;2533344;23;20025;-96
2023/07/13 04:21:23;;;;;;;;;;;;;;;;;;;;;
2023/07/13 04:22:32;;;;;;;18.05;14.48;;;;;;;;;;2563799;23;20024;-96
2023/07/13 04:25:04;;;;;;;20.23;13.88;;;;;;;;;;2555282;23;20027;-96
2023/07/13 04:26:06;;;;;;;20.13;14.00;;;;;;;;;;2562851;23;19996;-95
2023/07/13 04:27:30;;;;;;;19.27;14.30;;;;;;;;;;2559775;23;19995;-96
2023/07/13 04:28:33;;;;;;;17.45;13.77;;;;;;;;;;2552249;23;20269;-95
2023/07/13 04:29:33;;;;;;;18.70;13.75;;;;;;;;;;2535450;23;20024;-94
2023/07/13 04:30:36;;;;;;;17.30;14.18;;;;;;;;;;2534435;23;20005;-96
2023/07/13 04:31:37;;;;;;;17.33;13.55;;;;;;;;;;2543616;23;20061;-96
2023/07/13 04:32:38;;;;;;;17.15;13.43;;;;;;;;;;2556065;23;19993;-95
2023/07/13 04:33:41;;;;;;;18.92;14.32;;;;;;;;;;2568645;23;20009;-96
2023/07/13 04:34:42;;;;;;;20.60;13.85;;;;;;;;;;2566361;23;20032;-96
2023/07/13 04:35:43;;;;;;;17.52;14.13;;;;;;;;;;2563041;23;20113;-96
2023/07/13 04:36:48;;;;;;;18.23;13.63;;;;;;;;;;2548138;23;19997;-96
2023/07/13 04:37:50;;;;;;;15.43;12.95;;;;;;;;;;2552789;23;20002;-96
2023/07/13 04:38:56;;;;;;;16.45;13.05;;;;;;;;;;2559721;23;20444;-96
2023/07/13 04:39:59;;;;;;;16.40;13.52;;;;;;;;;;2558942;23;20007;-96
2023/07/13 04:41:04;;;;;;;17.90;13.20;;;;;;;;;;2551696;23;20002;-96
2023/07/13 04:42:12;;;;;;;15.90;12.32;;;;;;;;;;2545394;23;20017;-96
2023/07/13 04:43:30;;;;;;;17.27;12.25;;;;;;;;;;2559236;23;19993;-96
2023/07/13 04:44:41;;;;;;;16.80;11.93;;;;;;;;;;2565730;23;20001;-96
2023/07/13 04:45:41;;;;;;;21.42;11.95;;;;;;;;;;2564044;23;20000;-96
2023/07/13 04:46:44;;;;;;;14.38;11.57;;;;;;;;;;2563091;23;20001;-96
2023/07/13 04:47:50;;;;;;;17.25;12.65;;;;;;;;;;2566519;23;20056;-96
2023/07/13 04:49:03;;;;;;;17.55;11.90;;;;;;;;;;2555869;23;20060;-96
2023/07/13 04:50:12;;;;;;;14.52;11.18;;;;;;;;;;2563389;23;20013;-96
2023/07/13 04:51:15;;;;;;;15.77;11.57;;;;;;;;;;2568082;23;20020;-96
2023/07/13 04:52:18;;;;;;;18.70;11.60;;;;;;;;;;2572902;23;19996;-96
2023/07/13 04:53:31;;;;;;;;;;;;;;;;;;;;;
2023/07/13 04:54:42;;;;;;;12.75;10.85;;;;;;;;;;2567799;23;20008;-96
2023/07/13 04:55:53;;;;;;;12.80;11.18;;;;;;;;;;2553293;23;20021;-96
2023/07/13 04:56:55;;;;;;;14.68;10.75;;;;;;;;;;2551671;23;20009;-96
2023/07/13 04:57:59;;;;;;;12.63;11.13;;;;;;;;;;2561666;23;19997;-96
2023/07/13 04:59:01;;;;;;;15.02;10.55;;;;;;;;;;2558835;23;20319;-96
2023/07/13 05:00:05;;;;;;;14.45;10.98;;;;;;;;;;2558753;23;20108;-96
2023/07/13 05:01:07;;;;;;;16.45;11.40;;;;;;;;;;2558742;23;20000;-96
2023/07/13 05:02:10;;;;;;;12.48;10.57;;;;;;;;;;2112933;23;10441806;-96
2023/07/13 05:03:10;;;;;;;16.98;10.48;;;;;;;;;;2557752;23;20112;-96
2023/07/13 05:04:13;;;;;;;11.30;10.15;;;;;;;;;;2557587;23;20052;-96
2023/07/13 05:05:14;;;;;;;12.60;11.23;;;;;;;;;;2545667;23;19993;-96
2023/07/13 05:06:17;;;;;;;12.90;10.48;;;;;;;;;;2545868;23;20005;-96
2023/07/13 05:07:17;;;;;;;12.38;10.52;;;;;;;;;;2557160;23;20024;-95
2023/07/13 05:08:17;;;;;;;12.30;10.95;;;;;;;;;;2556880;23;20008;-95
2023/07/13 05:09:21;;;;;;;11.55;9.88;;;;;;;;;;2557196;23;19997;-96
2023/07/13 05:10:24;;;;;;;12.57;9.95;;;;;;;;;;2563026;23;20052;-96
2023/07/13 05:11:33;;;;;;;12.80;11.05;;;;;;;;;;2568113;23;20005;-96
2023/07/13 05:12:36;;;;;;;15.43;10.95;;;;;;;;;;2551086;23;20005;-96
2023/07/13 05:13:37;;;;;;;13.77;10.65;;;;;;;;;;2548499;23;20001;-94
2023/07/13 05:14:39;;;;;;;11.43;10.23;;;;;;;;;;2562599;23;19997;-95
2023/07/13 05:15:40;;;;;;;11.73;10.50;;;;;;;;;;2550696;23;20016;-95
2023/07/13 05:16:41;;;;;;;12.50;10.48;;;;;;;;;;2538982;23;20036;-95
2023/07/13 05:17:44;;;;;;;14.38;10.23;;;;;;;;;;2551052;23;20061;-95
2023/07/13 05:18:44;;;;;;;14.90;10.52;;;;;;;;;;2547917;23;20001;-96
2023/07/13 05:19:45;;;;;;;12.90;10.20;;;;;;;;;;2558957;23;20043;-96
2023/07/13 05:20:45;;;;;;;11.55;10.38;;;;;;;;;;2563342;23;20028;-96
2023/07/13 05:21:46;;;;;;;16.67;10.60;;;;;;;;;;2563010;23;20059;-96
2023/07/13 05:26:48;;;;;;;11.80;9.90;;;;;;;;;;2565211;23;20100;-96
2023/07/13 05:27:54;;;;;;;12.32;10.20;;;;;;;;;;2568053;23;20032;-96
2023/07/13 05:29:03;;;;;;;11.73;10.40;;;;;;;;;;2553967;23;20062;-96
2023/07/13 05:30:11;;;;;;;13.35;10.90;;;;;;;;;;2542193;23;20002;-96
2023/07/13 05:31:26;;;;;;;12.63;10.43;;;;;;;;;;2534448;23;19982;-96
2023/07/13 05:32:41;;;;;;;13.50;10.13;;;;;;;;;;2544622;23;20048;-96
2023/07/13 05:33:41;;;;;;;12.98;9.73;;;;;;;;;;2535449;23;20021;-96
2023/07/13 05:34:42;;;;;;;11.80;10.30;;;;;;;;;;2549754;23;20016;-95
2023/07/13 05:35:52;;;;;;;10.57;9.52;;;;;;;;;;2562649;23;20031;-95
2023/07/13 05:36:56;;;;;;;11.63;9.82;;;;;;;;;;2558760;23;20277;-96
2023/07/13 05:37:57;;;;;;;11.98;10.60;;;;;;;;;;2557745;23;20059;-95
2023/07/13 05:38:57;;;;;;;11.55;10.25;;;;;;;;;;2557715;23;20108;-95
2023/07/13 05:39:58;;;;;;;11.75;9.82;;;;;;;;;;2558073;23;20088;-96
2023/07/13 05:40:59;;;;;;;11.18;9.20;;;;;;;;;;2545420;23;20439;-96
2023/07/13 05:41:59;;;;;;;11.68;9.05;;;;;;;;;;2545548;23;20013;-96
2023/07/13 05:43:00;;;;;;;11.45;9.00;;;;;;;;;;2545347;23;20020;-96
2023/07/13 05:44:00;;;;;;;11.52;8.98;;;;;;;;;;2533598;23;20049;-96
2023/07/13 05:45:21;;;;;;;15.27;10.40;;;;;;;;;;2533254;23;20456;-96
2023/07/13 05:46:22;;;;;;;12.73;9.23;;;;;;;;;;2550927;23;19997;-95
2023/07/13 05:47:38;;;;;;;10.02;9.02;;;;;;;;;;2557409;23;20364;-95
2023/07/13 05:48:39;;;;;;;12.25;8.82;;;;;;;;;;2557792;23;20008;-96
2023/07/13 05:54:13;;;;;;;11.10;8.57;;;;;;;;;;2562728;23;20072;-96
2023/07/13 05:55:14;;;;;;;9.27;8.32;;;;;;;;;;2557738;23;19993;-96
2023/07/13 05:56:14;;;;;;;9.07;8.15;;;;;;;;;;2557677;23;20420;-94
2023/07/13 05:57:15;;;;;;;11.10;9.10;;;;;;;;;;2545880;23;20061;-96
2023/07/13 05:58:19;;;;;;;10.05;8.95;;;;;;;;;;2552113;23;20010;-96
2023/07/13 05:59:19;;;;;;;10.10;8.40;;;;;;;;;;2566146;23;20000;-96
2023/07/13 06:00:23;;;;;;;13.98;8.52;;;;;;;;;;2544934;23;20021;-96
2023/07/13 06:01:24;;;;;;;9.38;8.52;;;;;;;;;;2545800;23;20052;-94
2023/07/13 06:02:27;;;;;;;9.77;8.52;;;;;;;;;;2545616;23;20025;-96
2023/07/13 06:03:27;;;;;;;10.73;8.65;;;;;;;;;;2533870;23;19998;-95
2023/07/13 06:04:28;;;;;;;10.35;8.98;;;;;;;;;;2549515;23;19993;-95
2023/07/13 06:05:28;;;;;;;12.23;8.35;;;;;;;;;;2558594;23;20052;-96
2023/07/13 06:06:29;;;;;;;13.30;8.82;;;;;;;;;;2564382;23;20003;-95
2023/07/13 06:07:30;;;;;;;10.60;8.38;;;;;;;;;;2558276;23;20000;-96
2023/07/13 06:08:31;;;;;;;9.43;8.30;;;;;;;;;;2545946;23;20009;-96
2023/07/13 06:09:32;;;;;;;11.38;8.23;;;;;;;;;;2533929;23;20193;-96
2023/07/13 06:10:33;;;;;;;9.40;8.50;;;;;;;;;;2534102;23;20002;-95
2023/07/13 06:11:35;;;;;;;8.82;7.93;;;;;;;;;;2533882;23;20002;-96
2023/07/13 06:12:35;;;;;;;11.88;9.30;;;;;;;;;;2534752;23;20093;-95
2023/07/13 06:13:36;;;;;;;12.00;8.85;;;;;;;;;;2545769;23;20001;-95
2023/07/13 06:14:38;;;;;;;10.60;8.75;;;;;;;;;;2558686;23;20402;-95
2023/07/13 06:15:39;;;;;;;10.07;9.00;;;;;;;;;;2534697;23;20020;-96
2023/07/13 06:16:41;;;;;;;9.73;8.80;;;;;;;;;;2550143;23;19994;-94
2023/07/13 06:17:44;;;;;;;9.88;8.27;;;;;;;;;;2558396;23;19989;-94
2023/07/13 06:18:45;;;;;;;10.30;8.55;;;;;;;;;;2558943;23;20051;-95
2023/07/13 06:19:50;;;;;;;11.23;8.68;;;;;;;;;;2558720;23;20099;-96
2023/07/13 06:20:51;;;;;;;9.75;8.52;;;;;;;;;;2558756;23;20276;-95
2023/07/13 06:21:51;;;;;;;12.70;8.32;;;;;;;;;;2546577;23;20069;-95
2023/07/13 06:22:54;;;;;;;9.70;8.30;;;;;;;;;;2549265;23;20068;-95
2023/07/13 06:23:56;;;;;;;10.10;8.60;;;;;;;;;;2557868;23;19993;-95
2023/07/13 06:24:57;;;;;;;8.95;8.15;;;;;;;;;;2563776;23;19992;-95
2023/07/13 06:25:57;;;;;;;9.57;8.50;;;;;;;;;;2112136;23;10436304;-95
2023/07/13 06:26:58;;;;;;;9.43;8.52;;;;;;;;;;2545071;23;20021;-95
2023/07/13 06:27:58;;;;;;;9.25;8.25;;;;;;;;;;2533300;23;20002;-95
2023/07/13 06:28:59;;;;;;;10.48;8.23;;;;;;;;;;2549765;23;20005;-95
2023/07/13 06:29:59;;;;;;;10.35;8.90;;;;;;;;;;2558424;23;20075;-95
2023/07/13 06:31:02;;;;;;;12.93;8.63;;;;;;;;;;2557936;23;20020;-96
2023/07/13 06:32:06;;;;;;;10.32;8.48;;;;;;;;;;2562681;23;19993;-95
2023/07/13 06:33:07;;;;;;;9.63;8.13;;;;;;;;;;2545380;23;20419;-95
2023/07/13 06:34:08;;;;;;;10.53;8.43;;;;;;;;;;2108682;23;10281978;-95
2023/07/13 06:35:12;;;;;;;10.52;8.43;;;;;;;;;;2562421;23;20566;-95
2023/07/13 06:36:12;;;;;;;9.32;8.38;;;;;;;;;;2119935;23;10268131;-96
2023/07/13 06:37:36;;;;;;;;;;;;;;;;;;;;;
2023/07/13 06:38:38;;;;;;;14.10;8.52;;;;;;;;;;2562357;23;20004;-96